»·PEaware :: CHL1227 LSGG-EDDF

CHL1227 :: LSGG-EDDF

FLIGHT INFORMATION

Flight Status: Arrived
Operator: Unknown
More flights by this operator :: More flights under this callsign
Pilot: Daniel S. (9957)
Aircraft: Unknown
(CJR2)
More flights by this aircraft type
Origin: LSGG Geneva
Switzerland
Destination: EDDF Frankfurt/Main
Germany
More flights between these airports :: More routes between these airports
Route: MOLUS UN871 DITON T163 PSA
File this flight plan on PilotEdge
Remarks:
Altitude:
(Current/Filed)
28,000ft
Speed:
(Current/Filed)
430kts
Departed: 14-Jan-16 01:04 PM
Arrived: 14-Jan-16 03:16 PM
Distance/Time
Traveled:
248nm/2:12
Distance/Time
To Go:
Arrived

Flight Plot

Page will automatically refresh every two minutes.


Map Options




Map Legend


Flown Route
Filed Route
Departure Airport
Arrival Airport
Navaid (VOR, NDB)
Fix

Horizontal Profiles

Position Reports

Time Latitude Longitude Heading Altitude Ground
Speed
14-Jan-16 12:33 46.226147 6.096794 48 1398ft 0kts
14-Jan-16 12:34 46.226147 6.096794 48 1398ft 0kts
14-Jan-16 12:35 46.226147 6.096794 48 1398ft 0kts
14-Jan-16 12:36 46.226147 6.096794 48 1398ft 0kts
14-Jan-16 12:37 46.226147 6.096794 48 1398ft 0kts
14-Jan-16 12:38 46.226147 6.096794 48 1398ft 0kts
14-Jan-16 12:39 46.226147 6.096794 48 1398ft 0kts
14-Jan-16 12:40 46.226147 6.096794 48 1398ft 0kts
14-Jan-16 12:41 46.226147 6.096794 48 1398ft 0kts
14-Jan-16 12:42 46.226147 6.096794 48 1398ft 0kts
14-Jan-16 12:43 46.226147 6.096794 48 1398ft 0kts
14-Jan-16 12:44 46.226147 6.096794 48 1398ft 0kts
14-Jan-16 12:45 46.226147 6.096794 48 1398ft 0kts
14-Jan-16 12:46 46.226147 6.096794 48 1398ft 0kts
14-Jan-16 12:47 46.226147 6.096794 48 1398ft 0kts
14-Jan-16 12:48 46.226147 6.096794 48 1398ft 0kts
14-Jan-16 12:49 46.226147 6.096794 48 1398ft 0kts
14-Jan-16 12:50 46.226147 6.096794 48 1398ft 0kts
14-Jan-16 12:51 46.226147 6.096794 48 1398ft 0kts
14-Jan-16 12:52 46.226147 6.096794 48 1398ft 0kts
14-Jan-16 12:53 46.226147 6.096794 48 1398ft 0kts
14-Jan-16 12:54 46.226148 6.096796 48 1398ft 0kts
14-Jan-16 12:55 46.226283 6.096968 17 1398ft 6kts
14-Jan-16 12:56 46.225714 6.094099 237 1407ft 27kts
14-Jan-16 12:57 46.225502 6.092242 273 1412ft 0kts
14-Jan-16 12:58 46.226501 6.091972 46 1412ft 0kts
14-Jan-16 12:59 46.228173 6.094397 44 1407ft 74kts
14-Jan-16 13:00 46.243283 6.116462 43 1791ft 168kts
14-Jan-16 13:01 46.262141 6.144018 43 3100ft 172kts
14-Jan-16 13:02 46.281626 6.172596 43 4260ft 179kts
14-Jan-16 13:03 46.296967 6.195156 41 5145ft 181kts
14-Jan-16 13:04 46.311290 6.216176 40 5958ft 181kts
14-Jan-16 13:05 46.329010 6.242155 38 6960ft 179kts
14-Jan-16 13:06 46.346238 6.267308 37 7716ft 194kts
14-Jan-16 13:07 46.363841 6.293062 37 8417ft 207kts
14-Jan-16 13:08 46.376069 6.327107 65 9118ft 228kts
14-Jan-16 13:09 46.391943 6.405170 68 10424ft 244kts
14-Jan-16 13:10 46.399833 6.446194 69 11075ft 249kts
14-Jan-16 13:11 46.407952 6.488856 70 11737ft 253kts
14-Jan-16 13:12 46.416191 6.532709 70 12410ft 256kts
14-Jan-16 13:13 46.425749 6.583748 71 13187ft 257kts
14-Jan-16 13:14 46.435032 6.633402 70 13939ft 257kts
14-Jan-16 13:15 46.445852 6.679504 45 14598ft 247kts
14-Jan-16 13:16 46.471647 6.727967 43 15546ft 258kts
14-Jan-16 13:17 46.502152 6.783313 43 16557ft 284kts
14-Jan-16 13:18 46.535383 6.843265 43 17555ft 309kts
14-Jan-16 13:19 46.565142 6.896943 43 18407ft 320kts
14-Jan-16 13:20 46.598192 6.956411 43 19232ft 327kts
14-Jan-16 13:21 46.628232 7.010549 43 19933ft 333kts
14-Jan-16 13:22 46.664594 7.076181 43 20716ft 340kts
14-Jan-16 13:23 46.697700 7.136096 44 21391ft 345kts
14-Jan-16 13:24 46.732029 7.198399 44 22061ft 351kts
14-Jan-16 13:25 46.762003 7.252876 44 22600ft 356kts
14-Jan-16 13:26 46.789845 7.303603 44 23090ft 360kts
14-Jan-16 13:27 46.828591 7.374362 44 23922ft 357kts
14-Jan-16 13:28 46.872351 7.454517 44 24967ft 362kts
14-Jan-16 13:29 46.912691 7.528812 44 25660ft 376kts
14-Jan-16 13:30 46.947418 7.592860 44 26244ft 386kts
14-Jan-16 13:31 46.982693 7.658087 45 26819ft 395kts
14-Jan-16 13:32 47.015620 7.718278 45 27298ft 403kts
14-Jan-16 13:33 47.032248 7.749038 46 27541ft 406kts
14-Jan-16 13:34 47.063180 7.806368 46 27863ft 417kts
14-Jan-16 13:35 47.111832 7.896899 47 27871ft 446kts
14-Jan-16 13:36 47.146316 7.966762 54 27854ft 467kts
14-Jan-16 13:37 47.184519 8.055815 54 27849ft 487kts
14-Jan-16 13:38 47.224064 8.148856 54 27850ft 504kts
14-Jan-16 13:39 47.268191 8.253049 54 27851ft 520kts
14-Jan-16 13:40 47.312470 8.350162 43 27847ft 525kts
14-Jan-16 13:41 47.365988 8.439478 43 27853ft 535kts
14-Jan-16 13:42 47.415529 8.521975 43 27852ft 540kts
14-Jan-16 13:43 47.461663 8.599114 43 27935ft 542kts
14-Jan-16 13:44 47.513763 8.686047 44 27838ft 529kts
14-Jan-16 13:45 47.564004 8.769646 41 27833ft 507kts
14-Jan-16 13:46 47.617126 8.828355 9 27795ft 472kts
14-Jan-16 13:47 47.676370 8.852098 5 27842ft 463kts
14-Jan-16 13:48 47.723202 8.871047 5 27846ft 471kts
14-Jan-16 13:49 47.755936 8.884428 5 27848ft 477kts
14-Jan-16 13:50 47.795359 8.897386 355 27838ft 469kts
14-Jan-16 13:51 47.837646 8.903859 355 27849ft 475kts
14-Jan-16 13:52 47.884089 8.910866 355 27833ft 479kts
14-Jan-16 13:53 47.937987 8.918982 355 27824ft 470kts
14-Jan-16 13:54 47.982174 8.925609 355 27824ft 463kts
14-Jan-16 13:55 48.047526 8.935398 355 27826ft 455kts
14-Jan-16 13:56 48.100182 8.943310 354 27826ft 449kts
14-Jan-16 13:57 48.150039 8.950820 354 27821ft 444kts
14-Jan-16 13:58 48.190637 8.956942 354 27775ft 442kts
14-Jan-16 13:59 48.223175 8.961864 354 27768ft 439kts
14-Jan-16 14:00 48.262556 8.967839 354 27767ft 436kts
14-Jan-16 14:01 48.302451 8.973895 354 27767ft 432kts
14-Jan-16 14:02 48.338307 8.979345 354 27768ft 430kts
14-Jan-16 14:03 48.373465 8.984698 354 27768ft 428kts
14-Jan-16 14:04 48.407364 8.989862 354 27769ft 426kts
14-Jan-16 14:05 48.439153 8.994717 354 27770ft 424kts
14-Jan-16 14:06 48.459569 8.997838 354 27769ft 421kts
14-Jan-16 14:07 48.502826 9.004481 353 27766ft 413kts
14-Jan-16 14:08 48.548867 9.011549 353 27767ft 404kts
14-Jan-16 14:09 48.590412 9.017928 353 27771ft 397kts
14-Jan-16 14:10 48.637289 9.026209 356 27769ft 394kts
14-Jan-16 14:11 48.675163 9.034998 356 27769ft 388kts
14-Jan-16 14:12 48.706987 9.042519 356 27770ft 384kts
14-Jan-16 14:13 48.762376 9.055684 355 27771ft 377kts
14-Jan-16 14:14 48.817311 9.068797 355 27771ft 371kts
14-Jan-16 14:15 48.870290 9.081474 355 27772ft 366kts
14-Jan-16 14:16 48.925255 9.090372 351 27772ft 355kts
14-Jan-16 14:17 48.970716 9.096937 351 27774ft 351kts
14-Jan-16 14:18 49.015290 9.103318 350 27774ft 347kts
14-Jan-16 14:19 49.046041 9.107723 350 27775ft 345kts
14-Jan-16 14:20 49.084128 9.113175 350 27774ft 343kts
14-Jan-16 14:21 49.120987 9.118468 350 27770ft 340kts
14-Jan-16 14:22 49.159916 9.123910 351 27237ft 363kts
14-Jan-16 14:23 49.197522 9.129309 352 26703ft 375kts
14-Jan-16 14:24 49.238429 9.135178 352 25941ft 383kts
14-Jan-16 14:25 49.281500 9.141447 351 25110ft 368kts
14-Jan-16 14:26 49.313699 9.146081 351 24428ft 357kts
14-Jan-16 14:27 49.350408 9.151301 350 23481ft 350kts
14-Jan-16 14:28 49.391379 9.157123 350 22411ft 342kts
14-Jan-16 14:29 49.421745 9.162048 358 21597ft 346kts
14-Jan-16 14:30 49.439593 9.172384 14 21124ft 361kts
14-Jan-16 14:31 49.458921 9.184419 5 20606ft 346kts
14-Jan-16 14:32 49.495276 9.201229 2 19615ft 337kts
14-Jan-16 14:33 49.537719 9.218794 2 18434ft 329kts
14-Jan-16 14:34 49.581908 9.236509 2 17178ft 322kts
14-Jan-16 14:35 49.616674 9.250361 3 16171ft 316kts
14-Jan-16 14:36 49.650576 9.263855 3 15172ft 311kts
14-Jan-16 14:37 49.686266 9.278076 3 14102ft 306kts
14-Jan-16 14:38 49.718523 9.290945 4 13119ft 301kts
14-Jan-16 14:39 49.743230 9.300814 4 12356ft 298kts
14-Jan-16 14:40 49.773382 9.312868 5 11411ft 293kts
14-Jan-16 14:41 49.804107 9.325222 5 10722ft 277kts
14-Jan-16 14:42 49.827995 9.334891 5 10143ft 269kts
14-Jan-16 14:43 49.858588 9.347241 6 9093ft 268kts
14-Jan-16 14:44 49.886170 9.350209 334 8110ft 248kts
14-Jan-16 14:45 49.898304 9.335386 303 7539ft 239kts
14-Jan-16 14:46 49.902996 9.314602 283 7021ft 240kts
14-Jan-16 14:47 49.906401 9.293160 286 6489ft 239kts
14-Jan-16 14:48 49.911880 9.266610 296 5838ft 237kts
14-Jan-16 14:49 49.920827 9.241619 304 5694ft 224kts
14-Jan-16 14:50 49.932400 9.216317 308 5685ft 219kts
14-Jan-16 14:51 49.944732 9.192796 311 5684ft 215kts
14-Jan-16 14:52 49.962655 9.161265 313 5685ft 210kts
14-Jan-16 14:53 49.977801 9.135714 313 5311ft 216kts
14-Jan-16 14:54 49.993604 9.109525 314 4931ft 216kts
14-Jan-16 14:55 50.010825 9.081258 314 4604ft 218kts
14-Jan-16 14:56 50.029737 9.050332 314 4143ft 217kts
14-Jan-16 14:57 50.049177 9.018579 314 3708ft 205kts
14-Jan-16 14:58 50.057866 9.004379 315 3684ft 197kts
14-Jan-16 14:59 50.078530 8.970605 315 3676ft 194kts
14-Jan-16 15:00 50.097364 8.924974 282 3674ft 194kts
14-Jan-16 15:01 50.101714 8.871144 268 3689ft 194kts
14-Jan-16 15:02 50.096334 8.824878 259 3689ft 193kts
14-Jan-16 15:03 50.089069 8.783957 256 3774ft 176kts
14-Jan-16 15:04 50.082016 8.748915 255 3272ft 178kts
14-Jan-16 15:05 50.074062 8.711820 252 2447ft 189kts
14-Jan-16 15:06 50.067417 8.682682 248 1967ft 181kts
14-Jan-16 15:07 50.059881 8.649140 247 1360ft 166kts
14-Jan-16 15:08 50.053084 8.620881 247 959ft 153kts
14-Jan-16 15:09 50.046999 8.595004 246 490ft 144kts
14-Jan-16 15:10 50.041185 8.571448 250 358ft 74kts
14-Jan-16 15:11 50.039075 8.562248 253 344ft 36kts
14-Jan-16 15:12 50.039113 8.556674 303 343ft 17kts
14-Jan-16 15:13 50.040302 8.558768 70 345ft 17kts
14-Jan-16 15:14 50.040982 8.560903 17 349ft 16kts

Navigation Log

Ident Type
Flight plan parsing failed, navigation log unavailable